Time;durP1;ratioP1;P1;durP2;ratioP2;P2;SDS_P1;SDS_P2;PMS_P1;PMS_P2;Temp;Humidity;BMP_temperature;BMP_pressure;BME280_temperature;BME280_humidity;BME280_pressure;Samples;Min_cycle;Max_cycle;Signal;HPM_P1;HPM_P2
2022/04/06 00:01:33;;;;;;;;;0.67;0.67;;;;;13.28;48.66;100617.03;5031589;28;46318;-71
2022/04/06 00:03:58;;;;;;;;;2.33;0.67;;;;;13.27;48.25;100614.53;5031876;28;45781;-71
2022/04/06 00:06:24;;;;;;;;;1.00;0.67;;;;;13.27;48.54;100611.75;5025494;28;45594;-72
2022/04/06 00:08:49;;;;;;;;;1.67;1.67;;;;;13.28;48.38;100613.44;5012269;28;45931;-72
2022/04/06 00:11:15;;;;;;;;;1.00;1.00;;;;;13.27;48.89;100612.59;5011651;28;45469;-70
2022/04/06 00:13:40;;;;;;;;;3.67;0.67;;;;;13.31;48.82;100611.06;5011944;28;45707;-72
2022/04/06 00:16:05;;;;;;;;;1.33;0.67;;;;;13.30;48.11;100609.38;5012007;28;45668;-71
2022/04/06 00:18:31;;;;;;;;;3.33;2.33;;;;;13.25;48.71;100612.00;5011646;28;45436;-71
2022/04/06 00:20:56;;;;;;;;;2.00;1.33;;;;;13.25;48.52;100604.56;5011860;28;46069;-71
2022/04/06 00:23:22;;;;;;;;;1.67;0.67;;;;;13.27;48.46;100604.34;5012029;28;45447;-72
2022/04/06 00:25:47;;;;;;;;;1.67;1.00;;;;;13.28;48.51;100600.53;5011798;28;45812;-70
2022/04/06 00:28:13;;;;;;;;;1.33;1.33;;;;;13.28;49.08;100600.53;5011167;28;45421;-72
2022/04/06 00:30:38;;;;;;;;;0.33;0.33;;;;;13.29;48.56;100591.16;5017678;28;45575;-70
2022/04/06 00:33:03;;;;;;;;;1.00;1.00;;;;;13.28;48.96;100588.63;5031588;28;45594;-70
2022/04/06 00:35:29;;;;;;;;;4.00;1.33;;;;;13.19;48.26;100586.22;5031513;28;46105;-70
2022/04/06 00:37:55;;;;;;;;;1.67;1.67;;;;;13.18;48.98;100584.53;5031213;28;45387;-70
2022/04/06 00:40:22;;;;;;;;;1.67;1.67;;;;;13.14;49.03;100583.28;5031763;28;45714;-71
2022/04/06 00:42:48;;;;;;;;;0.67;0.67;;;;;13.09;49.17;100579.56;5031621;28;45945;-70
2022/04/06 00:45:15;;;;;;;;;2.00;1.67;;;;;12.99;49.74;100580.09;5031742;28;45493;-70
2022/04/06 00:47:41;;;;;;;;;3.00;1.00;;;;;12.86;50.40;100581.09;5032011;28;45377;-71
2022/04/06 00:50:07;;;;;;;;;0.67;0.67;;;;;12.77;50.58;100560.44;5031328;28;45772;-71
2022/04/06 00:52:33;;;;;;;;;2.00;1.00;;;;;12.72;50.48;100574.88;5031403;28;45256;-71
2022/04/06 00:54:59;;;;;;;;;2.67;0.67;;;;;12.62;51.14;100574.53;5031279;28;45694;-70
2022/04/06 00:57:25;;;;;;;;;1.00;1.00;;;;;12.54;51.41;100570.19;5031046;28;45711;-71
2022/04/06 00:59:51;;;;;;;;;3.33;1.67;;;;;12.48;51.76;100566.41;5031016;28;46156;-71
2022/04/06 01:02:17;;;;;;;;;3.00;1.67;;;;;12.38;52.17;100557.00;5031085;28;45367;-72
2022/04/06 01:04:42;;;;;;;;;1.67;1.67;;;;;12.28;52.47;100561.09;5031390;28;45319;-71
2022/04/06 01:07:08;;;;;;;;;0.00;0.00;;;;;12.22;52.71;100555.69;5019941;28;45664;-71
2022/04/06 01:09:34;;;;;;;;;4.00;3.00;;;;;12.17;52.93;100557.19;5014500;28;46567;-71
2022/04/06 01:11:59;;;;;;;;;4.00;4.00;;;;;12.17;53.23;100548.06;5014464;28;45579;-72
2022/04/06 01:14:25;;;;;;;;;3.00;3.00;;;;;12.09;53.09;100546.47;5014554;28;45814;-72
2022/04/06 01:17:02;;;;;;;;;2.33;2.00;;;;;12.02;53.50;100548.44;5014465;28;46350;-72
2022/04/06 01:19:38;;;;;;;;;2.33;2.33;;;;;11.87;54.13;100540.50;5014064;28;45822;-72
2022/04/06 01:22:12;;;;;;;;;4.00;2.67;;;;;11.83;54.22;100534.56;5013948;28;45620;-71
2022/04/06 01:24:39;;;;;;;;;2.00;2.00;;;;;11.76;54.04;100533.78;5014220;28;45482;-71
2022/04/06 01:27:05;;;;;;;;;4.33;3.00;;;;;11.68;54.60;100528.56;5014058;28;45999;-72
2022/04/06 01:29:31;;;;;;;;;4.00;1.00;;;;;11.70;54.95;100529.16;5013834;28;46140;-73
2022/04/06 01:32:26;;;;;;;;;4.00;3.00;;;;;11.55;54.86;100524.00;5022500;28;45630;-71
2022/04/06 01:35:08;;;;;;;;;2.33;2.00;;;;;11.54;55.06;100540.69;5016582;28;45582;-72
2022/04/06 01:37:34;;;;;;;;;2.00;2.00;;;;;11.43;54.62;100528.50;5033931;28;45511;-71
2022/04/06 01:40:00;;;;;;;;;2.00;2.00;;;;;11.38;55.68;100544.81;5016854;28;46108;-71
2022/04/06 01:42:25;;;;;;;;;3.00;2.00;;;;;11.34;55.23;100543.56;5034362;28;45568;-71
2022/04/06 01:44:51;;;;;;;;;5.33;3.00;;;;;11.31;55.54;100537.41;5034508;28;45839;-72
2022/04/06 01:47:18;;;;;;;;;2.00;2.00;;;;;11.28;55.57;100531.53;5034275;28;45332;-71
2022/04/06 01:52:29;;;;;;;;;3.33;2.00;;;;;11.21;55.67;100517.88;5033757;28;45451;-72
2022/04/06 01:55:00;;;;;;;;;2.33;2.33;;;;;11.14;55.94;100519.78;5034396;28;45474;-71
2022/04/06 01:57:26;;;;;;;;;2.00;2.00;;;;;11.10;56.10;100513.03;5033599;28;45495;-70
2022/04/06 01:59:52;;;;;;;;;3.67;3.00;;;;;11.04;56.00;100505.69;5033120;28;45792;-73
2022/04/06 02:02:19;;;;;;;;;1.33;1.33;;;;;11.05;55.89;100521.09;5033670;28;45440;-70
2022/04/06 02:04:45;;;;;;;;;2.33;1.67;;;;;11.07;56.22;100514.31;5034448;28;45490;-70
2022/04/06 02:07:13;;;;;;;;;1.33;1.33;;;;;10.91;56.20;100506.56;5020815;28;45676;-71
2022/04/06 02:09:39;;;;;;;;;2.00;2.00;;;;;10.97;56.44;100515.84;4996067;28;46232;-71
2022/04/06 02:12:07;;;;;;;;;3.00;2.00;;;;;10.89;56.63;100511.44;5013772;28;45708;-70
2022/04/06 02:14:33;;;;;;;;;2.00;1.67;;;;;10.85;56.69;100510.19;5014177;28;45388;-71
2022/04/06 02:16:59;;;;;;;;;1.67;1.67;;;;;10.87;56.72;100519.06;5021749;28;45764;-71
2022/04/06 02:19:25;;;;;;;;;3.33;2.00;;;;;10.85;56.62;100518.41;5031810;28;46362;-71
2022/04/06 02:21:52;;;;;;;;;2.00;2.00;;;;;10.83;57.14;100515.06;5025602;28;45447;-73
2022/04/06 02:24:18;;;;;;;;;2.00;0.67;;;;;10.89;57.00;100516.94;5013222;28;45522;-71
2022/04/06 02:26:44;;;;;;;;;2.33;1.00;;;;;10.95;56.68;100505.91;5013411;28;45547;-71
2022/04/06 02:29:09;;;;;;;;;3.00;2.00;;;;;11.00;56.57;100498.94;5021269;28;45385;-72
2022/04/06 02:31:35;;;;;;;;;2.33;2.00;;;;;11.13;55.87;100504.38;5015151;28;45664;-71
2022/04/06 02:34:00;;;;;;;;;2.67;1.00;;;;;11.15;55.58;100498.66;5033246;28;45784;-74
2022/04/06 02:36:26;;;;;;;;;1.33;1.33;;;;;11.25;55.61;100501.78;5021104;28;46441;-71
2022/04/06 02:38:55;;;;;;;;;2.67;1.00;;;;;11.30;55.33;100482.72;5012972;28;45741;-73
2022/04/06 02:41:20;;;;;;;;;0.33;0.33;;;;;11.33;54.97;100496.03;5012411;28;45355;-71
2022/04/06 02:43:46;;;;;;;;;2.33;1.00;;;;;11.36;54.69;100490.13;5013750;28;45503;-72
2022/04/06 02:46:11;;;;;;;;;1.00;1.00;;;;;11.46;54.42;100490.44;5029738;28;45360;-70
2022/04/06 02:48:37;;;;;;;;;0.67;0.67;;;;;11.61;54.28;100497.53;5031763;28;47177;-71
2022/04/06 02:51:02;;;;;;;;;1.00;1.00;;;;;11.71;54.17;100495.16;5032817;28;45655;-73
2022/04/06 02:53:27;;;;;;;;;0.00;0.00;;;;;11.74;53.88;100488.38;5032229;28;45330;-71
2022/04/06 02:55:53;;;;;;;;;1.00;1.00;;;;;11.80;53.67;100484.75;5032576;28;45719;-70
2022/04/06 02:58:19;;;;;;;;;1.00;1.00;;;;;11.83;53.75;100484.28;5029862;28;45983;-71
2022/04/06 03:00:44;;;;;;;;;5.00;1.00;;;;;11.89;53.67;100491.63;5032911;28;45412;-71
2022/04/06 03:03:10;;;;;;;;;0.33;0.33;;;;;11.92;53.58;100476.63;5087989;22;45406;-72
2022/04/06 03:05:35;;;;;;;;;1.00;1.00;;;;;11.95;53.43;100488.00;5031938;28;45661;-73
2022/04/06 03:08:19;;;;;;;;;;;;;;;;;;;;;
2022/04/06 03:10:45;;;;;;;;;1.00;1.00;;;;;11.98;53.13;100481.25;5031577;28;73688;-73
2022/04/06 03:13:10;;;;;;;;;0.00;0.00;;;;;12.05;52.62;100482.03;5033770;28;45504;-71
2022/04/06 03:15:36;;;;;;;;;1.00;1.00;;;;;12.08;52.77;100465.06;5033367;28;45742;-74
2022/04/06 03:18:04;;;;;;;;;1.00;0.00;;;;;12.04;52.60;100452.84;5015340;28;48065;-73
2022/04/06 03:20:29;;;;;;;;;2.00;1.00;;;;;12.13;52.49;100454.22;5014684;28;45994;-73
2022/04/06 03:22:55;;;;;;;;;0.00;0.00;;;;;12.15;52.46;100454.84;5032607;28;45485;-73
2022/04/06 03:25:20;;;;;;;;;0.00;0.00;;;;;12.19;52.33;100447.81;5031254;28;45755;-73
2022/04/06 03:27:46;;;;;;;;;0.33;0.33;;;;;12.21;52.41;100452.25;5030813;28;46376;-70
2022/04/06 03:30:11;;;;;;;;;3.33;1.33;;;;;12.16;52.87;100440.03;5030586;28;46129;-74
2022/04/06 03:32:37;;;;;;;;;0.00;0.00;;;;;12.22;52.30;100442.97;5031406;28;45685;-74
2022/04/06 03:35:04;;;;;;;;;1.00;1.00;;;;;12.21;51.81;100438.53;5031178;28;45448;-74
2022/04/06 03:37:30;;;;;;;;;0.67;0.67;;;;;12.25;52.87;100437.00;5030918;28;45462;-73
2022/04/06 03:39:55;;;;;;;;;1.00;0.00;;;;;12.24;52.33;100432.56;5029069;28;46099;-73
2022/04/06 03:42:21;;;;;;;;;2.00;0.00;;;;;12.29;52.04;100433.56;5031544;28;45413;-73
2022/04/06 03:44:46;;;;;;;;;0.00;0.00;;;;;12.30;52.29;100428.91;5030125;28;45427;-72
2022/04/06 03:47:12;;;;;;;;;1.67;1.67;;;;;12.38;52.46;100431.38;5014071;28;47456;-74
2022/04/06 03:49:37;;;;;;;;;3.00;1.00;;;;;12.35;52.28;100429.06;5032453;28;45785;-72
2022/04/06 03:52:03;;;;;;;;;1.00;0.00;;;;;12.34;52.36;100419.13;5032303;28;45807;-72
2022/04/06 03:54:28;;;;;;;;;0.00;0.00;;;;;12.36;51.91;100426.09;5031814;28;45406;-73
2022/04/06 03:56:54;;;;;;;;;0.00;0.00;;;;;12.34;52.09;100419.97;5031668;28;45395;-71
2022/04/06 03:59:19;;;;;;;;;2.00;0.33;;;;;12.36;51.76;100425.22;5031885;28;45799;-72
2022/04/06 04:01:45;;;;;;;;;0.67;0.67;;;;;12.32;52.37;100422.09;5031960;28;45494;-73
2022/04/06 04:04:10;;;;;;;;;1.00;1.00;;;;;12.31;51.79;100414.91;5032119;28;45340;-73
2022/04/06 04:06:39;;;;;;;;;0.33;0.33;;;;;12.30;52.12;100417.91;5032025;28;45805;-72
2022/04/06 04:09:05;;;;;;;;;0.33;0.00;;;;;12.27;51.88;100415.59;5033863;28;45342;-73
2022/04/06 04:11:30;;;;;;;;;1.00;1.00;;;;;12.31;52.01;100419.59;5032699;28;45366;-73
2022/04/06 04:13:56;;;;;;;;;2.00;1.00;;;;;12.29;51.91;100416.22;5032565;28;45355;-73
2022/04/06 04:16:23;;;;;;;;;1.00;1.00;;;;;12.23;52.12;100415.25;5032341;28;45832;-73
2022/04/06 04:18:49;;;;;;;;;0.00;0.00;;;;;12.17;52.71;100421.63;5030731;28;45386;-73
2022/04/06 04:21:32;;;;;;;;;0.67;0.00;;;;;12.21;52.68;100420.09;5029685;28;45550;-72
2022/04/06 04:24:03;;;;;;;;;1.00;0.00;;;;;12.28;52.47;100411.78;5031221;28;45690;-72
2022/04/06 04:26:28;;;;;;;;;1.00;0.00;;;;;12.26;52.47;100412.03;5026317;28;45814;-75
2022/04/06 04:28:54;;;;;;;;;1.67;1.67;;;;;12.29;52.63;100405.22;5030111;28;45446;-79
2022/04/06 04:31:20;;;;;;;;;0.00;0.00;;;;;12.32;52.02;100411.09;5030222;28;45684;-73
2022/04/06 04:33:45;;;;;;;;;0.00;0.00;;;;;12.33;52.36;100411.94;5029855;28;45691;-71
2022/04/06 04:36:11;;;;;;;;;1.00;1.00;;;;;12.30;52.16;100407.72;5030837;28;45421;-71
2022/04/06 04:38:36;;;;;;;;;1.33;1.00;;;;;12.34;52.00;100395.22;5013565;28;45832;-74
2022/04/06 04:41:06;;;;;;;;;1.00;1.00;;;;;12.33;52.08;100407.28;5031244;28;45862;-73
2022/04/06 04:43:32;;;;;;;;;1.00;1.00;;;;;12.33;52.13;100406.44;5034567;28;45298;-71
2022/04/06 04:45:58;;;;;;;;;1.00;1.00;;;;;12.32;51.87;100402.84;5033780;28;46243;-73
2022/04/06 04:48:23;;;;;;;;;1.00;1.00;;;;;12.29;52.12;100395.06;5034617;28;45496;-71
2022/04/06 04:50:49;;;;;;;;;1.67;1.67;;;;;12.29;51.71;100405.22;5034266;28;45777;-71
2022/04/06 04:53:14;;;;;;;;;0.67;0.67;;;;;12.29;51.60;100388.72;5034371;28;45754;-72
2022/04/06 04:55:41;;;;;;;;;3.00;1.00;;;;;12.30;51.50;100379.41;5034155;28;45283;-69
2022/04/06 04:58:07;;;;;;;;;1.67;0.67;;;;;12.33;51.27;100373.44;5034100;28;45683;-72
2022/04/06 05:00:32;;;;;;;;;3.00;0.33;;;;;12.33;51.42;100367.94;5033935;28;45565;-71
2022/04/06 05:02:58;;;;;;;;;0.00;0.00;;;;;12.38;51.23;100368.13;5025641;28;45481;-70
2022/04/06 05:05:23;;;;;;;;;0.00;0.00;;;;;12.35;51.08;100365.81;5030828;28;45406;-73
2022/04/06 05:07:49;;;;;;;;;0.00;0.00;;;;;12.36;51.32;100372.97;5028631;28;45834;-70
2022/04/06 05:10:15;;;;;;;;;2.33;1.33;;;;;12.35;51.29;100379.56;5029461;28;45845;-72
2022/04/06 05:12:40;;;;;;;;;0.00;0.00;;;;;12.44;51.39;100386.44;5027229;28;45901;-72
2022/04/06 05:15:07;;;;;;;;;0.00;0.00;;;;;12.46;51.31;100372.44;5025652;28;45958;-71
2022/04/06 05:17:34;;;;;;;;;0.00;0.00;;;;;12.51;50.87;100376.19;5032411;28;45516;-71
2022/04/06 05:20:00;;;;;;;;;1.00;1.00;;;;;12.52;50.92;100382.53;5026869;28;45727;-71
2022/04/06 05:22:25;;;;;;;;;2.33;0.00;;;;;12.51;50.93;100369.84;5012078;28;47368;-73
2022/04/06 05:24:52;;;;;;;;;1.67;0.00;;;;;12.57;50.99;100379.09;5024886;28;45933;-70
2022/04/06 05:27:17;;;;;;;;;2.00;0.00;;;;;12.60;50.49;100379.44;5011352;28;45780;-72
2022/04/06 05:29:43;;;;;;;;;3.00;2.00;;;;;12.64;50.95;100374.34;5026364;28;46008;-75
2022/04/06 05:32:09;;;;;;;;;2.00;0.33;;;;;12.67;51.00;100371.94;5028098;28;45703;-72
2022/04/06 05:34:35;;;;;;;;;2.00;1.00;;;;;12.65;50.90;100379.59;5026981;28;46463;-71
2022/04/06 05:37:01;;;;;;;;;0.67;0.67;;;;;12.65;50.83;100384.25;5029440;28;45573;-72
2022/04/06 05:39:27;;;;;;;;;1.67;1.67;;;;;12.68;50.70;100375.56;5024085;28;45457;-72
2022/04/06 05:41:52;;;;;;;;;0.67;0.67;;;;;12.62;51.03;100370.97;5028862;28;45741;-71
2022/04/06 05:44:18;;;;;;;;;0.33;0.33;;;;;12.67;50.90;100379.38;5007963;28;46312;-70
2022/04/06 05:46:43;;;;;;;;;2.00;2.00;;;;;12.64;51.22;100374.34;5026241;28;45785;-70
2022/04/06 05:49:09;;;;;;;;;0.67;0.67;;;;;12.69;52.08;100368.97;5026967;28;45819;-72
2022/04/06 05:51:35;;;;;;;;;2.33;2.00;;;;;12.74;51.88;100374.63;5027880;28;45549;-72
2022/04/06 05:54:03;;;;;;;;;2.67;1.00;;;;;12.80;51.58;100367.34;5007980;28;48273;-73
2022/04/06 05:56:30;;;;;;;;;2.00;2.00;;;;;12.87;51.67;100368.09;5010365;28;46133;-71
2022/04/06 05:58:56;;;;;;;;;0.67;0.67;;;;;12.93;51.47;100371.81;5023306;28;45477;-73
2022/04/06 06:01:21;;;;;;;;;1.00;1.00;;;;;12.98;51.30;100370.06;5008829;28;46369;-72
2022/04/06 06:03:47;;;;;;;;;1.67;1.67;;;;;12.95;51.52;100369.66;5012633;28;45806;-72
2022/04/06 06:06:12;;;;;;;;;1.67;1.67;;;;;12.87;51.53;100362.59;5008629;28;45911;-72
2022/04/06 06:08:37;;;;;;;;;3.67;3.67;;;;;12.95;51.35;100375.16;5015431;28;46083;-70
2022/04/06 06:11:03;;;;;;;;;8.33;3.00;;;;;12.93;51.62;100377.31;5013769;28;46034;-71
2022/04/06 06:13:32;;;;;;;;;2.00;2.00;;;;;12.95;51.58;100365.03;5015603;28;46229;-70
2022/04/06 06:15:58;;;;;;;;;7.00;4.33;;;;;12.97;51.17;100373.03;5012280;28;45904;-71
2022/04/06 06:18:25;;;;;;;;;4.67;4.33;;;;;12.93;51.29;100375.41;5009073;28;45793;-71
2022/04/06 06:20:50;;;;;;;;;3.00;2.00;;;;;12.89;51.33;100355.78;5007254;28;45703;-71
2022/04/06 06:23:16;;;;;;;;;3.67;3.67;;;;;12.84;51.57;100368.56;5008242;28;45883;-73
2022/04/06 06:25:41;;;;;;;;;6.33;5.33;;;;;12.87;52.17;100360.69;5008452;28;45960;-70
2022/04/06 06:28:07;;;;;;;;;5.67;3.33;;;;;12.87;51.75;100362.59;4992275;28;45848;-70
2022/04/06 06:30:33;;;;;;;;;4.33;3.00;;;;;12.88;51.49;100362.34;5008889;28;45879;-73
2022/04/06 06:32:58;;;;;;;;;4.00;3.00;;;;;12.93;51.93;100358.06;5009175;28;45488;-71
2022/04/06 06:35:24;;;;;;;;;7.33;4.00;;;;;12.97;51.87;100362.84;5009144;28;45493;-72
2022/04/06 06:37:52;;;;;;;;;5.33;3.33;;;;;13.02;51.22;100356.66;5006992;28;45945;-68
2022/04/06 06:40:19;;;;;;;;;5.67;3.67;;;;;13.05;51.62;100358.94;5008953;28;45793;-69
2022/04/06 06:42:45;;;;;;;;;3.00;1.67;;;;;13.09;50.98;100353.81;5008741;28;45499;-70
2022/04/06 06:45:11;;;;;;;;;3.00;3.00;;;;;13.15;51.03;100353.69;5005541;28;45762;-72
2022/04/06 06:47:37;;;;;;;;;3.00;2.00;;;;;13.20;51.02;100342.81;5009299;28;45557;-73
2022/04/06 06:50:03;;;;;;;;;2.00;2.00;;;;;13.31;51.11;100354.94;4972786;28;46514;-72
2022/04/06 06:52:29;;;;;;;;;1.33;0.33;;;;;13.36;50.34;100354.25;5012038;28;47400;-74
2022/04/06 06:54:54;;;;;;;;;3.67;3.33;;;;;13.34;50.06;100350.91;5008969;28;45594;-73
2022/04/06 06:57:20;;;;;;;;;4.33;2.33;;;;;13.45;50.40;100352.81;5018156;28;45474;-71
2022/04/06 06:59:45;;;;;;;;;2.00;1.67;;;;;13.53;49.72;100348.88;5009020;28;45868;-73
2022/04/06 07:02:11;;;;;;;;;1.00;1.00;;;;;13.61;50.05;100340.28;5008018;28;46276;-73
2022/04/06 07:04:37;;;;;;;;;1.67;1.00;;;;;13.69;49.51;100348.16;5007688;28;45718;-71
2022/04/06 07:07:03;;;;;;;;;2.67;1.67;;;;;13.77;49.92;100349.72;4996882;28;45855;-71
2022/04/06 07:09:28;;;;;;;;;1.67;1.33;;;;;13.85;49.13;100343.84;4990630;28;45598;-72
2022/04/06 07:11:53;;;;;;;;;2.33;2.33;;;;;13.94;48.31;100338.81;4990414;28;45658;-71
2022/04/06 07:14:20;;;;;;;;;3.67;2.00;;;;;14.09;48.26;100346.59;4991109;28;45738;-71
2022/04/06 07:16:46;;;;;;;;;3.00;2.00;;;;;14.18;48.68;100344.31;5004085;28;45940;-72
2022/04/06 07:19:11;;;;;;;;;0.00;0.00;;;;;14.28;47.97;100331.56;5009034;28;46286;-73
2022/04/06 07:21:37;;;;;;;;;1.33;1.33;;;;;14.38;47.44;100330.09;5010611;28;45813;-72
2022/04/06 07:24:03;;;;;;;;;0.67;0.67;;;;;14.46;48.12;100336.06;5010898;28;45380;-73
2022/04/06 07:26:29;;;;;;;;;4.67;1.67;;;;;14.52;47.23;100337.00;5008664;28;45770;-73
2022/04/06 07:28:55;;;;;;;;;1.67;1.67;;;;;14.58;47.02;100336.03;5010207;28;45501;-73
2022/04/06 07:31:20;;;;;;;;;2.00;2.00;;;;;14.65;46.75;100333.13;5009317;28;45399;-73
2022/04/06 07:33:46;;;;;;;;;3.33;2.00;;;;;14.71;47.40;100332.16;5009695;28;45407;-73
2022/04/06 07:36:13;;;;;;;;;1.00;1.00;;;;;14.85;47.26;100324.44;5004152;28;45920;-72
2022/04/06 07:38:39;;;;;;;;;1.67;1.67;;;;;14.93;46.11;100332.28;5007159;28;45749;-73
2022/04/06 07:41:05;;;;;;;;;2.00;1.00;;;;;15.00;46.28;100321.94;5005373;28;45627;-73
2022/04/06 07:43:30;;;;;;;;;2.67;2.00;;;;;15.05;45.81;100323.13;5005005;28;46006;-71
2022/04/06 07:45:56;;;;;;;;;2.33;1.33;;;;;15.12;45.90;100329.28;5008002;28;45564;-72
2022/04/06 07:48:22;;;;;;;;;1.00;1.00;;;;;15.24;45.77;100326.47;5008972;28;46720;-73
2022/04/06 07:50:48;;;;;;;;;1.00;1.00;;;;;15.29;45.52;100326.56;5003606;28;46758;-73
2022/04/06 07:53:13;;;;;;;;;2.00;1.00;;;;;15.38;44.78;100327.00;5010552;28;45818;-74
2022/04/06 07:55:39;;;;;;;;;3.00;2.00;;;;;15.43;44.96;100324.28;5008591;28;45914;-74
2022/04/06 07:58:04;;;;;;;;;2.00;2.00;;;;;15.49;45.03;100320.53;5006993;28;45736;-74
2022/04/06 08:00:33;;;;;;;;;2.00;2.00;;;;;15.56;45.07;100317.59;5007160;28;45801;-70
2022/04/06 08:02:59;;;;;;;;;1.00;1.00;;;;;15.68;44.17;100318.34;5001419;28;45535;-70
2022/04/06 08:05:25;;;;;;;;;2.67;2.00;;;;;15.78;44.83;100309.38;5000917;28;45773;-71
2022/04/06 08:07:53;;;;;;;;;1.00;1.00;;;;;15.80;44.29;100312.75;4991745;28;45757;-71
2022/04/06 08:10:19;;;;;;;;;3.00;1.00;;;;;15.84;44.06;100308.38;4990614;28;46188;-73
2022/04/06 08:12:46;;;;;;;;;1.00;1.00;;;;;15.94;43.93;100299.38;4996485;28;45637;-69
2022/04/06 08:15:13;;;;;;;;;1.00;1.00;;;;;16.09;43.80;100305.09;5003289;28;45851;-73
2022/04/06 08:17:41;;;;;;;;;2.00;1.00;;;;;16.14;43.68;100293.28;4988442;28;45815;-72
2022/04/06 08:20:08;;;;;;;;;2.00;1.67;;;;;16.20;43.65;100287.56;4990112;28;45502;-73
2022/04/06 08:22:34;;;;;;;;;2.00;0.00;;;;;16.32;42.86;100300.44;4991545;28;46801;-70
2022/04/06 08:24:59;;;;;;;;;3.00;2.00;;;;;16.42;42.67;100301.38;5007826;28;45742;-73
2022/04/06 08:27:27;;;;;;;;;0.67;0.67;;;;;16.51;42.18;100289.84;4992152;28;46909;-71
2022/04/06 08:29:52;;;;;;;;;1.00;1.00;;;;;16.59;42.92;100287.44;5008462;28;46220;-71
2022/04/06 08:32:18;;;;;;;;;0.67;0.67;;;;;16.75;42.00;100293.13;4992726;28;45730;-71
2022/04/06 08:34:43;;;;;;;;;1.00;1.00;;;;;16.80;41.74;100292.38;4992329;28;45410;-70
2022/04/06 08:37:09;;;;;;;;;0.00;0.00;;;;;16.90;42.23;100289.72;5008676;28;45771;-71
2022/04/06 08:39:34;;;;;;;;;0.00;0.00;;;;;16.89;41.66;100283.34;5010427;28;45725;-71
2022/04/06 08:42:00;;;;;;;;;1.00;1.00;;;;;16.89;41.45;100276.97;5009119;28;45478;-71
2022/04/06 08:44:26;;;;;;;;;1.00;1.00;;;;;17.01;41.21;100282.34;5007447;28;45439;-70
2022/04/06 08:46:52;;;;;;;;;0.00;0.00;;;;;17.03;40.76;100278.19;5009857;28;45528;-71
2022/04/06 08:49:23;;;;;;;;;2.33;1.00;;;;;17.03;41.03;100283.75;5010010;28;45745;-74
2022/04/06 08:51:48;;;;;;;;;0.67;0.67;;;;;16.99;41.21;100287.31;5010533;28;45790;-73
2022/04/06 08:54:14;;;;;;;;;1.00;1.00;;;;;16.95;41.22;100289.78;5010681;28;45478;-72
2022/04/06 08:56:39;;;;;;;;;0.67;0.67;;;;;16.92;40.92;100285.59;5011778;28;45393;-71
2022/04/06 08:59:05;;;;;;;;;1.33;1.00;;;;;17.02;40.45;100282.09;5011030;28;45888;-71
2022/04/06 09:01:33;;;;;;;;;0.00;0.00;;;;;17.02;40.41;100279.31;5010647;28;45742;-72
2022/04/06 09:04:00;;;;;;;;;0.00;0.00;;;;;17.00;41.30;100288.97;5010992;28;45281;-72
2022/04/06 09:06:29;;;;;;;;;0.00;0.00;;;;;16.96;40.57;100288.69;5004678;28;45710;-71
2022/04/06 09:08:55;;;;;;;;;0.00;0.00;;;;;16.96;40.14;100282.28;4991123;28;45642;-72
2022/04/06 09:11:21;;;;;;;;;1.00;1.00;;;;;16.98;40.65;100278.16;4990231;28;46006;-74
2022/04/06 09:13:56;;;;;;;;;2.00;2.00;;;;;17.08;41.12;100275.50;4991209;28;45547;-71
2022/04/06 09:16:21;;;;;;;;;1.00;1.00;;;;;17.13;40.41;100282.19;4990921;28;45366;-73
2022/04/06 09:18:48;;;;;;;;;0.00;0.00;;;;;17.17;40.53;100273.06;4990920;28;45379;-72
2022/04/06 09:21:18;;;;;;;;;3.00;1.67;;;;;17.22;40.97;100269.50;4991154;28;45710;-73
2022/04/06 09:23:48;;;;;;;;;1.00;1.00;;;;;17.32;40.49;100274.28;4991690;28;45383;-73
2022/04/06 09:26:14;;;;;;;;;0.67;0.67;;;;;17.46;40.02;100270.78;4991522;28;45519;-72
2022/04/06 09:28:41;;;;;;;;;2.00;1.00;;;;;17.49;39.90;100280.50;4991624;28;45613;-72
2022/04/06 09:31:08;;;;;;;;;2.00;2.00;;;;;17.43;39.48;100279.63;5005406;28;45905;-72
2022/04/06 09:33:39;;;;;;;;;1.67;1.00;;;;;17.42;40.12;100282.66;5012299;28;45961;-73
2022/04/06 09:36:18;;;;;;;;;0.67;0.00;;;;;17.44;40.22;100278.53;5019352;28;45735;-73
2022/04/06 09:38:47;;;;;;;;;3.67;0.67;;;;;17.50;40.08;100264.69;5016146;28;46223;-74
2022/04/06 09:41:15;;;;;;;;;1.00;0.00;;;;;17.43;39.07;100276.03;5010117;28;45470;-72
2022/04/06 09:43:46;;;;;;;;;1.00;1.00;;;;;17.21;39.16;100262.28;5010648;28;45532;-73
2022/04/06 09:49:16;;;;;;;;;1.00;1.00;;;;;16.94;40.14;100282.56;5018099;28;46477;-74
2022/04/06 09:51:46;;;;;;;;;2.00;1.00;;;;;16.94;39.79;100268.69;5018610;28;45804;-73
2022/04/06 09:54:13;;;;;;;;;1.00;1.00;;;;;17.07;40.28;100271.03;5004848;28;45985;-72
2022/04/06 09:56:40;;;;;;;;;1.00;1.00;;;;;17.06;40.32;100266.59;5007531;28;45881;-74
2022/04/06 09:59:07;;;;;;;;;2.00;2.00;;;;;17.20;39.17;100272.53;5013030;28;46017;-71
2022/04/06 10:01:35;;;;;;;;;1.33;1.33;;;;;17.21;40.18;100276.13;5008879;28;45398;-73
2022/04/06 10:04:03;;;;;;;;;1.00;1.00;;;;;17.14;40.52;100273.59;5009488;28;45519;-75
2022/04/06 10:06:34;;;;;;;;;2.00;2.00;;;;;16.98;40.26;100269.03;5007507;28;47547;-74
2022/04/06 10:09:01;;;;;;;;;1.00;1.00;;;;;16.95;39.87;100275.91;5020507;28;46600;-74
2022/04/06 10:11:28;;;;;;;;;1.33;1.00;;;;;16.90;40.08;100264.78;5015437;28;45535;-76
2022/04/06 10:13:55;;;;;;;;;0.00;0.00;;;;;16.84;40.39;100263.88;5021764;28;45879;-75
2022/04/06 10:16:22;;;;;;;;;2.00;1.00;;;;;16.88;39.97;100276.13;5020491;28;45750;-74
2022/04/06 10:18:48;;;;;;;;;3.00;2.00;;;;;16.84;40.38;100252.81;5019370;28;46723;-73
2022/04/06 10:21:26;;;;;;;;;1.00;1.00;;;;;16.72;40.10;100250.22;4979778;28;45684;-72
2022/04/06 10:24:10;;;;;;;;;1.67;1.00;;;;;16.71;40.20;100253.25;5028271;28;45528;-74
2022/04/06 10:26:54;;;;;;;;;1.00;0.00;;;;;16.75;40.58;100257.13;5028714;28;46044;-74
2022/04/06 10:29:20;;;;;;;;;2.00;1.00;;;;;16.63;40.73;100242.63;5013640;28;45970;-74
2022/04/06 10:31:46;;;;;;;;;1.33;1.33;;;;;16.66;40.96;100244.88;5009268;28;45852;-73
2022/04/06 10:34:32;;;;;;;;;1.33;1.33;;;;;16.80;41.07;100234.22;5009909;28;46018;-75
2022/04/06 10:37:11;;;;;;;;;0.33;0.00;;;;;16.74;40.66;100231.38;5010523;28;45933;-74
2022/04/06 10:40:03;;;;;;;;;4.67;2.67;;;;;16.69;41.61;100222.19;5009999;28;46290;-72
2022/04/06 10:42:37;;;;;;;;;4.00;4.00;;;;;16.63;40.89;100237.94;5005963;28;46113;-71
2022/04/06 10:45:29;;;;;;;;;1.00;1.00;;;;;16.63;41.28;100224.09;5006901;28;45641;-76
2022/04/06 10:48:13;;;;;;;;;3.00;2.00;;;;;16.69;41.55;100217.50;5010533;28;46524;-75
2022/04/06 10:50:44;;;;;;;;;2.00;2.00;;;;;16.62;42.20;100210.47;5010131;28;45690;-75
2022/04/06 10:53:19;;;;;;;;;2.00;2.00;;;;;16.44;42.42;100215.31;5010060;28;45825;-75
2022/04/06 10:56:16;;;;;;;;;2.00;2.00;;;;;16.34;42.43;100201.38;5008692;28;45747;-72
2022/04/06 10:58:54;;;;;;;;;3.00;2.00;;;;;16.29;42.50;100207.69;5007385;28;45767;-74
2022/04/06 11:01:31;;;;;;;;;3.00;2.00;;;;;16.20;43.08;100190.72;5009463;28;45668;-75
2022/04/06 11:04:17;;;;;;;;;3.00;1.00;;;;;16.26;42.79;100197.16;5010355;28;45989;-72
2022/04/06 11:07:03;;;;;;;;;0.67;0.67;;;;;16.23;42.91;100190.19;5006947;28;45613;-75
2022/04/06 11:12:17;;;;;;;;;1.00;1.00;;;;;16.51;43.34;100184.66;5011003;28;45380;-74
2022/04/06 11:14:47;;;;;;;;;2.00;2.00;;;;;16.57;43.11;100176.13;5012043;28;45700;-74
2022/04/06 11:17:34;;;;;;;;;3.00;3.00;;;;;16.83;42.71;100175.53;5011935;28;45492;-72
2022/04/06 11:20:06;;;;;;;;;4.00;4.00;;;;;16.82;42.33;100166.38;5010771;28;45829;-73
2022/04/06 11:22:32;;;;;;;;;3.33;3.33;;;;;16.80;42.50;100167.75;5011136;28;46114;-73
2022/04/06 11:25:01;;;;;;;;;3.00;3.00;;;;;17.00;42.15;100159.59;5012160;28;45501;-73
2022/04/06 11:27:29;;;;;;;;;2.00;2.00;;;;;17.15;42.42;100153.34;5013224;28;45458;-73
2022/04/06 11:30:04;;;;;;;;;3.00;3.00;;;;;17.29;42.12;100148.19;5011912;28;45536;-72
2022/04/06 11:32:29;;;;;;;;;2.00;2.00;;;;;17.55;41.30;100138.03;5010578;28;45229;-72
2022/04/06 11:35:05;;;;;;;;;2.00;2.00;;;;;17.71;40.62;100138.94;5011702;28;45670;-74
2022/04/06 11:37:38;;;;;;;;;5.33;3.67;;;;;17.92;41.17;100133.47;5009983;28;45822;-73